createdAt,value
2023-07-25T00:01:59.513Z,24.88
2023-07-25T00:04:27.435Z,24.89
2023-07-25T00:06:55.056Z,24.88
2023-07-25T00:09:22.781Z,24.86
2023-07-25T00:11:50.736Z,24.75
2023-07-25T00:14:19.313Z,24.55
2023-07-25T00:16:47.053Z,24.45
2023-07-25T00:19:15.058Z,24.31
2023-07-25T00:21:42.219Z,24.15
2023-07-25T00:24:10.815Z,24.13
2023-07-25T00:26:38.876Z,24.14
2023-07-25T00:29:06.504Z,24.18
2023-07-25T00:31:34.547Z,24.09
2023-07-25T00:34:04.915Z,24.06
2023-07-25T00:36:32.604Z,24.02
2023-07-25T00:39:00.298Z,24.01
2023-07-25T00:41:28.563Z,24.06
2023-07-25T00:43:56.285Z,24.11
2023-07-25T00:46:25.340Z,24.13
2023-07-25T00:48:53.365Z,24.15
2023-07-25T00:51:21.079Z,24.26
2023-07-25T00:53:48.769Z,24.17
2023-07-25T00:56:17.908Z,24.16
2023-07-25T00:58:46.898Z,23.99
2023-07-25T01:01:15.798Z,23.97
2023-07-25T01:03:44.200Z,23.83
2023-07-25T01:06:16.008Z,23.82
2023-07-25T01:08:57.120Z,23.84
2023-07-25T01:11:25.357Z,23.73
2023-07-25T01:13:53.869Z,23.64
2023-07-25T01:16:27.124Z,23.60
2023-07-25T01:18:55.324Z,23.33
2023-07-25T01:21:23.719Z,22.98
2023-07-25T01:23:51.388Z,22.71
2023-07-25T01:26:19.712Z,22.62
2023-07-25T01:28:47.374Z,22.66
2023-07-25T01:31:15.054Z,22.61
2023-07-25T01:33:43.115Z,22.56
2023-07-25T01:36:10.836Z,22.59
2023-07-25T01:38:38.443Z,22.53
2023-07-25T01:41:06.373Z,22.54
2023-07-25T01:43:33.988Z,22.52
2023-07-25T01:46:01.681Z,22.33
2023-07-25T01:48:30.685Z,22.33
2023-07-25T01:50:58.994Z,22.35
2023-07-25T01:53:28.356Z,21.93
2023-07-25T01:55:56.258Z,21.69
2023-07-25T01:58:24.068Z,21.80
2023-07-25T02:01:00.445Z,21.76
2023-07-25T02:03:28.610Z,21.67
2023-07-25T02:05:56.308Z,21.63
2023-07-25T02:08:23.997Z,21.52
2023-07-25T02:10:51.996Z,21.53
2023-07-25T02:13:19.649Z,21.45
2023-07-25T02:15:47.450Z,21.38
2023-07-25T02:18:15.917Z,21.34
2023-07-25T02:20:43.552Z,21.31
2023-07-25T02:23:11.326Z,21.34
2023-07-25T02:25:39.284Z,21.44
2023-07-25T02:28:06.940Z,21.59
2023-07-25T02:30:34.926Z,21.58
2023-07-25T02:33:03.212Z,21.60
2023-07-25T02:35:31.534Z,21.59
2023-07-25T02:37:59.192Z,21.54
2023-07-25T02:40:27.363Z,21.63
2023-07-25T02:42:55.039Z,21.58
2023-07-25T02:45:22.720Z,21.56
2023-07-25T02:47:51.641Z,21.59
2023-07-25T02:50:19.347Z,21.59
2023-07-25T02:52:48.312Z,21.61
2023-07-25T02:55:17.709Z,21.62
2023-07-25T02:57:45.450Z,21.61
2023-07-25T03:00:14.036Z,21.43
2023-07-25T03:02:42.289Z,21.39
2023-07-25T03:05:10.408Z,21.34
2023-07-25T03:07:38.063Z,21.39
2023-07-25T03:10:06.640Z,21.35
2023-07-25T03:12:34.544Z,21.24
2023-07-25T03:15:03.114Z,21.08
2023-07-25T03:17:31.972Z,20.97
2023-07-25T03:20:00.237Z,20.90
2023-07-25T03:22:27.937Z,20.91
2023-07-25T03:24:56.381Z,20.92
2023-07-25T03:27:24.093Z,20.89
2023-07-25T03:29:52.446Z,20.86
2023-07-25T03:32:20.513Z,20.93
2023-07-25T03:34:48.574Z,20.95
2023-07-25T03:37:16.223Z,20.91
2023-07-25T03:39:44.182Z,20.92
2023-07-25T03:42:11.876Z,21.10
2023-07-25T03:44:39.555Z,21.09
2023-07-25T03:47:07.455Z,21.15
2023-07-25T03:49:35.167Z,21.10
2023-07-25T03:52:05.443Z,21.11
2023-07-25T03:54:33.524Z,21.08
2023-07-25T03:57:02.733Z,21.13
2023-07-25T03:59:30.460Z,21.17
2023-07-25T04:01:58.997Z,21.13
2023-07-25T04:04:27.135Z,21.08
2023-07-25T04:06:54.829Z,21.13
2023-07-25T04:09:22.465Z,21.10
2023-07-25T04:11:50.410Z,21.17
2023-07-25T04:14:19.509Z,21.08
2023-07-25T04:16:47.223Z,21.00
2023-07-25T04:19:15.165Z,20.94
2023-07-25T04:21:42.876Z,20.90
2023-07-25T04:24:10.697Z,20.91
2023-07-25T04:26:38.676Z,20.90
2023-07-25T04:29:07.201Z,20.93
2023-07-25T04:31:35.490Z,20.95
2023-07-25T04:34:03.651Z,21.00
2023-07-25T04:36:31.943Z,21.01
2023-07-25T04:38:59.858Z,20.98
2023-07-25T04:41:27.795Z,20.88
2023-07-25T04:43:58.226Z,20.86
2023-07-25T04:46:26.391Z,20.81
2023-07-25T04:48:54.434Z,20.82
2023-07-25T04:51:23.234Z,20.84
2023-07-25T04:53:50.987Z,20.88
2023-07-25T04:56:20.078Z,20.99
2023-07-25T04:58:47.738Z,21.18
2023-07-25T05:01:15.692Z,21.42
2023-07-25T05:03:43.700Z,21.62
2023-07-25T05:06:12.909Z,21.81
2023-07-25T05:08:41.332Z,21.95
2023-07-25T05:11:09.650Z,21.96
2023-07-25T05:13:37.686Z,22.00
2023-07-25T05:16:05.684Z,21.89
2023-07-25T05:18:33.694Z,21.84
2023-07-25T05:21:01.381Z,22.05
2023-07-25T05:23:30.105Z,22.19
2023-07-25T05:25:59.206Z,22.29
2023-07-25T05:28:27.387Z,22.40
2023-07-25T05:30:55.043Z,22.51
2023-07-25T05:33:23.429Z,22.62
2023-07-25T05:36:00.329Z,22.67
2023-07-25T05:38:28.472Z,22.73
2023-07-25T05:40:59.216Z,22.79
2023-07-25T05:43:27.462Z,22.83
2023-07-25T05:45:55.425Z,22.89
2023-07-25T05:48:23.161Z,23.05
2023-07-25T05:50:53.146Z,23.10
2023-07-25T05:53:23.253Z,23.16
2023-07-25T05:55:50.963Z,23.11
2023-07-25T05:58:18.741Z,23.08
2023-07-25T06:00:48.517Z,23.09
2023-07-25T06:03:17.038Z,23.08
2023-07-25T06:05:44.733Z,23.03
2023-07-25T06:08:12.636Z,23.04
2023-07-25T06:10:42.230Z,23.15
2023-07-25T06:13:11.510Z,23.30
2023-07-25T06:15:39.207Z,23.38
2023-07-25T06:18:08.270Z,23.36
2023-07-25T06:20:37.146Z,23.51
2023-07-25T06:23:05.153Z,23.64
2023-07-25T06:25:33.135Z,23.73
2023-07-25T06:28:00.834Z,23.77
2023-07-25T06:30:29.570Z,23.81
2023-07-25T06:32:57.906Z,23.88
2023-07-25T06:35:25.548Z,23.90
2023-07-25T06:37:54.086Z,23.83
2023-07-25T06:40:21.984Z,23.98
2023-07-25T06:42:49.584Z,24.10
2023-07-25T06:45:17.885Z,24.06
2023-07-25T06:47:45.923Z,24.09
2023-07-25T06:50:13.868Z,24.17
2023-07-25T06:52:41.924Z,24.22
2023-07-25T06:55:10.172Z,24.37
2023-07-25T06:57:37.778Z,24.53
2023-07-25T07:00:05.945Z,24.52
2023-07-25T07:02:45.950Z,24.56
2023-07-25T07:05:28.116Z,24.67
2023-07-25T07:07:59.534Z,24.79
2023-07-25T07:10:27.618Z,24.85
2023-07-25T07:12:55.320Z,24.96
2023-07-25T07:15:26.013Z,24.98
2023-07-25T07:17:54.586Z,25.07
2023-07-25T07:20:22.349Z,25.05
2023-07-25T07:22:51.998Z,25.04
2023-07-25T07:25:19.719Z,25.01
2023-07-25T07:27:51.327Z,25.03
2023-07-25T07:30:19.532Z,25.17
2023-07-25T07:32:48.434Z,25.25
2023-07-25T07:35:16.141Z,25.34
2023-07-25T07:37:44.076Z,25.44
2023-07-25T07:40:11.963Z,25.56
2023-07-25T07:42:44.452Z,25.63
2023-07-25T07:45:13.189Z,25.73
2023-07-25T07:47:40.970Z,25.74
2023-07-25T07:50:09.563Z,25.81
2023-07-25T07:52:44.280Z,25.83
2023-07-25T07:55:14.367Z,25.81
2023-07-25T07:57:43.667Z,25.80
2023-07-25T08:00:14.914Z,25.75
2023-07-25T08:02:45.286Z,25.70
2023-07-25T08:05:14.492Z,25.62
2023-07-25T08:07:44.504Z,25.56
2023-07-25T08:10:12.237Z,25.50
2023-07-25T08:12:40.408Z,25.48
2023-07-25T08:15:08.554Z,25.41
2023-07-25T08:17:37.056Z,25.32
2023-07-25T08:20:05.613Z,25.25
2023-07-25T08:22:33.458Z,25.20
2023-07-25T08:25:01.941Z,25.14
2023-07-25T08:27:31.169Z,25.08
2023-07-25T08:29:59.646Z,25.04
2023-07-25T08:32:27.287Z,24.98
2023-07-25T08:34:54.920Z,24.92
2023-07-25T08:37:22.079Z,24.86
2023-07-25T08:39:50.177Z,24.77
2023-07-25T08:42:19.014Z,24.71
2023-07-25T08:44:51.615Z,24.59
2023-07-25T08:47:24.062Z,24.57
2023-07-25T08:49:53.735Z,24.53
2023-07-25T08:52:22.911Z,24.48
2023-07-25T08:54:50.784Z,24.38
2023-07-25T08:57:22.108Z,24.29
2023-07-25T08:59:51.583Z,24.28
2023-07-25T09:02:19.629Z,24.28
2023-07-25T09:04:49.197Z,24.09
2023-07-25T09:07:18.148Z,24.01
2023-07-25T09:09:46.267Z,23.82
2023-07-25T09:12:14.108Z,23.59
2023-07-25T09:14:44.444Z,23.22
2023-07-25T09:17:13.878Z,23.01
2023-07-25T09:19:42.635Z,22.83
2023-07-25T09:22:31.295Z,22.68
2023-07-25T09:25:00.009Z,22.51
2023-07-25T09:27:27.727Z,22.33
2023-07-25T09:29:55.253Z,22.33
2023-07-25T09:32:28.603Z,22.21
2023-07-25T09:35:01.197Z,22.01
2023-07-25T09:37:29.373Z,21.94
2023-07-25T09:39:57.333Z,21.87
2023-07-25T09:42:25.932Z,21.85
2023-07-25T09:44:55.344Z,21.85
2023-07-25T09:47:27.587Z,21.77
2023-07-25T09:49:57.467Z,21.74
2023-07-25T09:52:26.469Z,21.66
2023-07-25T09:54:53.614Z,21.59
2023-07-25T09:57:22.910Z,21.37
2023-07-25T09:59:52.445Z,21.39
2023-07-25T10:02:19.565Z,21.50
2023-07-25T10:04:48.316Z,21.55
2023-07-25T10:07:16.777Z,21.69
2023-07-25T10:09:46.031Z,21.88
2023-07-25T10:12:14.036Z,21.76
2023-07-25T10:14:41.752Z,21.81
2023-07-25T10:17:09.674Z,21.89
2023-07-25T10:19:55.545Z,21.91
2023-07-25T10:22:38.482Z,21.94
2023-07-25T10:25:28.082Z,21.99
2023-07-25T10:28:03.595Z,21.93
2023-07-25T10:30:40.683Z,21.92
2023-07-25T10:33:09.082Z,21.80
2023-07-25T10:35:41.105Z,21.92
2023-07-25T10:38:11.165Z,21.85
2023-07-25T10:41:00.909Z,21.91
2023-07-25T10:43:30.610Z,21.99
2023-07-25T10:46:01.625Z,21.83
2023-07-25T10:48:36.011Z,21.91
2023-07-25T10:51:07.869Z,21.79
2023-07-25T10:53:38.147Z,21.90
2023-07-25T10:56:09.729Z,21.81
2023-07-25T10:58:59.709Z,21.79
2023-07-25T11:01:37.371Z,21.86
2023-07-25T11:04:25.169Z,21.76
2023-07-25T11:06:55.173Z,21.81
2023-07-25T11:09:26.091Z,21.84
2023-07-25T11:11:56.294Z,21.94
2023-07-25T11:14:25.794Z,22.13
2023-07-25T11:16:53.894Z,22.22
2023-07-25T11:19:27.773Z,22.27
2023-07-25T11:21:56.716Z,22.32
2023-07-25T11:24:24.666Z,22.46
2023-07-25T11:29:25.229Z,22.85
2023-07-25T11:31:53.317Z,22.96
2023-07-25T11:34:21.666Z,23.05
2023-07-25T11:36:49.354Z,23.13
2023-07-25T11:39:18.309Z,23.17
2023-07-25T11:41:46.924Z,23.22
2023-07-25T11:44:20.124Z,23.28
2023-07-25T11:46:52.930Z,23.43
2023-07-25T11:49:40.065Z,23.56
2023-07-25T11:52:11.825Z,23.62
2023-07-25T11:54:39.799Z,23.63
2023-07-25T11:57:09.397Z,23.68
2023-07-25T11:59:41.792Z,23.77
2023-07-25T12:02:12.644Z,23.70
2023-07-25T12:04:45.582Z,23.76
2023-07-25T12:07:16.435Z,23.78
2023-07-25T12:09:52.469Z,23.90
2023-07-25T12:12:23.511Z,23.91
2023-07-25T12:15:00.901Z,23.91
2023-07-25T12:17:43.936Z,23.90
2023-07-25T12:20:20.829Z,23.86
2023-07-25T12:22:48.686Z,23.86
2023-07-25T12:25:20.442Z,23.77
2023-07-25T12:27:49.207Z,23.71
2023-07-25T12:30:17.935Z,23.62
2023-07-25T12:32:47.638Z,23.66
2023-07-25T12:35:15.390Z,23.71
2023-07-25T12:37:43.307Z,23.73
2023-07-25T12:40:22.900Z,23.71
2023-07-25T12:42:52.610Z,23.70
2023-07-25T12:45:21.312Z,23.72
2023-07-25T12:47:49.043Z,23.64
2023-07-25T12:50:18.477Z,23.64
2023-07-25T12:52:46.114Z,23.53
2023-07-25T12:55:13.887Z,23.45
2023-07-25T12:57:41.838Z,23.40
2023-07-25T13:00:09.829Z,23.37
2023-07-25T13:02:40.491Z,23.41
2023-07-25T13:05:08.587Z,23.51
2023-07-25T13:07:37.302Z,23.59
2023-07-25T13:10:07.446Z,23.66
2023-07-25T13:12:37.144Z,23.77
2023-07-25T13:15:05.936Z,23.82
2023-07-25T13:17:36.547Z,23.81
2023-07-25T13:20:09.559Z,23.55
2023-07-25T13:22:38.381Z,23.47
2023-07-25T13:25:08.105Z,23.47
2023-07-25T13:27:36.968Z,23.38
2023-07-25T13:30:05.075Z,23.49
2023-07-25T13:32:34.873Z,23.44
2023-07-25T13:35:05.957Z,23.45
2023-07-25T13:37:35.242Z,23.69
2023-07-25T13:40:03.165Z,23.82
2023-07-25T13:42:33.047Z,23.84
2023-07-25T13:45:01.030Z,23.80
2023-07-25T13:47:28.856Z,23.76
2023-07-25T13:49:59.220Z,23.84
2023-07-25T13:52:27.765Z,23.85
2023-07-25T13:54:56.381Z,23.99
2023-07-25T13:57:25.809Z,23.83
2023-07-25T14:00:00.460Z,23.81
2023-07-25T14:02:28.181Z,23.66
2023-07-25T14:04:57.615Z,23.53
2023-07-25T14:07:26.123Z,23.47
2023-07-25T14:09:53.745Z,23.39
2023-07-25T14:12:21.675Z,23.29
2023-07-25T14:14:49.317Z,23.28
2023-07-25T14:17:17.074Z,23.25
2023-07-25T14:19:46.020Z,23.19
2023-07-25T14:22:13.699Z,23.29
2023-07-25T14:24:41.372Z,23.38
2023-07-25T14:27:09.553Z,23.43
2023-07-25T14:29:38.507Z,23.49
2023-07-25T14:32:07.171Z,23.41
2023-07-25T14:34:36.343Z,23.35
2023-07-25T14:37:04.749Z,23.33
2023-07-25T14:39:32.641Z,23.21
2023-07-25T14:42:04.016Z,23.04
2023-07-25T14:44:33.158Z,22.93
2023-07-25T14:47:00.678Z,23.00
2023-07-25T14:49:29.853Z,23.16
2023-07-25T14:52:02.648Z,23.25
2023-07-25T14:54:31.007Z,23.47
2023-07-25T14:56:58.681Z,23.70
2023-07-25T14:59:28.426Z,23.82
2023-07-25T15:01:56.355Z,23.91
2023-07-25T15:04:25.121Z,24.05
2023-07-25T15:06:52.814Z,24.06
2023-07-25T15:09:20.784Z,24.08
2023-07-25T15:11:47.936Z,24.08
2023-07-25T15:14:15.639Z,24.15
2023-07-25T15:16:43.774Z,24.25
2023-07-25T15:19:11.581Z,24.32
2023-07-25T15:21:39.692Z,24.37
2023-07-25T15:24:09.470Z,24.44
2023-07-25T15:26:38.300Z,24.41
2023-07-25T15:29:06.358Z,24.38
2023-07-25T15:31:34.490Z,24.41
2023-07-25T15:34:04.852Z,24.41
2023-07-25T15:36:32.528Z,24.38
2023-07-25T15:39:00.483Z,24.35
2023-07-25T15:41:30.236Z,24.31
2023-07-25T15:43:58.081Z,24.12
2023-07-25T15:46:27.761Z,24.17
2023-07-25T15:48:57.208Z,24.26
2023-07-25T15:51:27.149Z,24.33
2023-07-25T15:53:55.533Z,24.15
2023-07-25T15:56:23.904Z,24.09
2023-07-25T15:58:51.566Z,24.07
2023-07-25T16:01:19.540Z,24.00
2023-07-25T16:03:47.719Z,24.03
2023-07-25T16:06:16.295Z,24.03
2023-07-25T16:08:45.281Z,24.09
2023-07-25T16:11:13.227Z,24.08
2023-07-25T16:13:41.272Z,24.11
2023-07-25T16:16:09.387Z,24.08
2023-07-25T16:18:36.726Z,24.08
2023-07-25T16:21:04.320Z,23.94
2023-07-25T16:23:31.439Z,24.09
2023-07-25T16:26:03.271Z,24.04
2023-07-25T16:28:31.885Z,24.06
2023-07-25T16:31:23.134Z,23.94
2023-07-25T16:33:47.901Z,23.97
2023-07-25T16:36:15.877Z,24.03
2023-07-25T16:38:43.560Z,24.08
2023-07-25T16:41:12.873Z,24.06
2023-07-25T16:43:40.790Z,24.14
2023-07-25T16:46:11.225Z,24.26
2023-07-25T16:48:40.624Z,24.36
2023-07-25T16:51:10.242Z,24.38
2023-07-25T16:53:39.093Z,24.34
2023-07-25T16:56:07.850Z,24.18
2023-07-25T16:58:35.921Z,24.06
2023-07-25T17:01:05.613Z,23.87
2023-07-25T17:03:34.075Z,23.75
2023-07-25T17:06:05.158Z,23.62
2023-07-25T17:08:33.780Z,23.59
2023-07-25T17:11:07.714Z,23.51
2023-07-25T17:13:35.669Z,23.38
2023-07-25T17:16:02.944Z,23.32
2023-07-25T17:18:30.793Z,23.36
2023-07-25T17:20:58.365Z,23.36
2023-07-25T17:23:26.846Z,23.40
2023-07-25T17:25:56.367Z,23.39
2023-07-25T17:28:25.757Z,23.31
2023-07-25T17:30:52.983Z,23.33
2023-07-25T17:33:20.688Z,23.23
2023-07-25T17:35:48.145Z,23.17
2023-07-25T17:38:15.440Z,23.16
2023-07-25T17:40:43.367Z,23.14
2023-07-25T17:43:10.897Z,23.00
2023-07-25T17:45:38.108Z,22.98
2023-07-25T17:48:09.811Z,22.90
2023-07-25T17:50:37.398Z,22.91
2023-07-25T17:53:05.071Z,22.92
2023-07-25T17:55:32.701Z,22.85
2023-07-25T17:58:02.714Z,22.81
2023-07-25T18:00:34.469Z,22.83
2023-07-25T18:03:02.063Z,22.86
2023-07-25T18:05:31.208Z,22.80
2023-07-25T18:07:59.366Z,22.79
2023-07-25T18:10:27.149Z,22.74
2023-07-25T18:12:56.448Z,22.64
2023-07-25T18:15:23.696Z,22.58
2023-07-25T18:17:52.033Z,22.56
2023-07-25T18:20:19.588Z,22.50
2023-07-25T18:22:46.716Z,22.45
2023-07-25T18:25:14.304Z,22.40
2023-07-25T18:27:41.457Z,22.37
2023-07-25T18:30:10.812Z,22.29
2023-07-25T18:32:38.237Z,22.28
2023-07-25T18:35:09.023Z,22.19
2023-07-25T18:37:36.628Z,22.07
2023-07-25T18:40:04.306Z,21.96
2023-07-25T18:42:31.983Z,21.83
2023-07-25T18:44:59.184Z,21.65
2023-07-25T18:47:34.582Z,21.44
2023-07-25T18:50:03.389Z,21.34
2023-07-25T18:52:30.801Z,21.29
2023-07-25T18:54:58.044Z,21.27
2023-07-25T18:57:25.808Z,21.28
2023-07-25T18:59:56.721Z,21.32
2023-07-25T19:02:26.202Z,21.35
2023-07-25T19:04:53.809Z,21.33
2023-07-25T19:07:21.514Z,21.44
2023-07-25T19:09:48.683Z,21.41
2023-07-25T19:12:16.136Z,21.42
2023-07-25T19:14:44.168Z,21.47
2023-07-25T19:17:11.499Z,21.50
2023-07-25T19:19:41.247Z,21.52
2023-07-25T19:22:10.453Z,21.55
2023-07-25T19:24:37.633Z,21.56
2023-07-25T19:27:05.788Z,21.55
2023-07-25T19:29:32.935Z,21.53
2023-07-25T19:32:00.693Z,21.47
2023-07-25T19:34:28.070Z,21.49
2023-07-25T19:36:55.764Z,21.56
2023-07-25T19:39:22.932Z,21.45
2023-07-25T19:41:54.121Z,21.39
2023-07-25T19:44:21.508Z,21.42
2023-07-25T19:46:52.409Z,21.35
2023-07-25T19:49:21.359Z,21.22
2023-07-25T19:51:48.473Z,21.16
2023-07-25T19:54:16.094Z,21.17
2023-07-25T19:56:44.230Z,21.09
2023-07-25T19:59:13.039Z,21.09
2023-07-25T20:01:40.226Z,21.11
2023-07-25T20:04:07.621Z,21.12
2023-07-25T20:06:37.461Z,21.15
2023-07-25T20:09:04.691Z,21.21
2023-07-25T20:11:32.546Z,21.25
2023-07-25T20:13:59.722Z,21.28
2023-07-25T20:16:26.967Z,21.27
2023-07-25T20:18:54.494Z,21.21
2023-07-25T20:21:22.909Z,21.16
2023-07-25T20:23:50.016Z,21.13
2023-07-25T20:26:19.847Z,21.14
2023-07-25T20:28:48.325Z,21.08
2023-07-25T20:31:17.635Z,21.08
2023-07-25T20:33:45.028Z,21.05
2023-07-25T20:36:12.150Z,21.00
2023-07-25T20:38:39.301Z,20.92
2023-07-25T20:41:06.851Z,20.94
2023-07-25T20:43:34.521Z,20.95
2023-07-25T20:46:04.760Z,20.88
2023-07-25T20:48:33.036Z,20.86
2023-07-25T20:51:01.144Z,20.79
2023-07-25T20:53:29.100Z,20.84
2023-07-25T20:55:58.009Z,20.88
2023-07-25T20:58:25.804Z,20.75
2023-07-25T21:00:53.603Z,20.67
2023-07-25T21:03:23.490Z,20.51
2023-07-25T21:05:51.197Z,20.37
2023-07-25T21:08:18.849Z,20.42
2023-07-25T21:10:50.103Z,20.46
2023-07-25T21:13:18.017Z,20.50
2023-07-25T21:15:48.510Z,20.46
2023-07-25T21:18:16.935Z,20.35
2023-07-25T21:20:46.177Z,20.37
2023-07-25T21:23:23.851Z,20.45
2023-07-25T21:25:52.219Z,20.44
2023-07-25T21:28:19.977Z,20.51
2023-07-25T21:30:48.237Z,20.55
2023-07-25T21:33:16.378Z,20.63
2023-07-25T21:35:45.985Z,20.62
2023-07-25T21:38:13.095Z,20.60
2023-07-25T21:40:40.730Z,20.61
2023-07-25T21:43:10.073Z,20.70
2023-07-25T21:45:37.783Z,20.75
2023-07-25T21:48:05.926Z,20.79
2023-07-25T21:50:33.699Z,20.78
2023-07-25T21:53:01.044Z,20.73
2023-07-25T21:55:28.230Z,20.68
2023-07-25T21:57:55.983Z,20.53
2023-07-25T22:00:23.156Z,20.47
2023-07-25T22:02:50.685Z,20.43
2023-07-25T22:05:19.225Z,20.50
2023-07-25T22:07:48.908Z,20.46
2023-07-25T22:10:16.899Z,20.41
2023-07-25T22:12:47.756Z,20.31
2023-07-25T22:15:15.471Z,20.25
2023-07-25T22:17:43.399Z,20.20
2023-07-25T22:20:11.382Z,20.21
2023-07-25T22:22:39.112Z,20.17
2023-07-25T22:25:08.233Z,20.19
2023-07-25T22:27:35.838Z,20.27
2023-07-25T22:30:04.286Z,20.40
2023-07-25T22:32:43.995Z,20.42
2023-07-25T22:35:12.103Z,20.42
2023-07-25T22:37:40.052Z,20.43
2023-07-25T22:40:08.349Z,20.36
2023-07-25T22:42:35.962Z,20.15
2023-07-25T22:45:04.331Z,20.17
2023-07-25T22:47:32.003Z,20.24
2023-07-25T22:51:21.524Z,20.76
2023-07-25T22:53:48.940Z,20.76
2023-07-25T22:56:16.095Z,20.36
2023-07-25T22:58:43.212Z,20.20
2023-07-25T23:01:12.482Z,20.11
2023-07-25T23:03:40.756Z,20.06
2023-07-25T23:06:08.267Z,20.07
2023-07-25T23:08:35.672Z,20.02
2023-07-25T23:11:02.779Z,20.00
2023-07-25T23:13:29.968Z,20.01
2023-07-25T23:15:57.698Z,19.96
2023-07-25T23:18:24.830Z,19.97
2023-07-25T23:20:51.925Z,19.95
2023-07-25T23:23:19.316Z,19.92
2023-07-25T23:25:46.449Z,20.00
2023-07-25T23:28:13.581Z,20.00
2023-07-25T23:30:40.989Z,19.99
2023-07-25T23:33:08.195Z,20.00
2023-07-25T23:35:35.892Z,20.01
2023-07-25T23:38:04.148Z,19.94
2023-07-25T23:40:31.277Z,19.95
2023-07-25T23:42:58.417Z,19.90
2023-07-25T23:45:25.820Z,19.90
2023-07-25T23:47:52.954Z,19.96
2023-07-25T23:50:21.618Z,19.93
2023-07-25T23:52:49.079Z,19.89
2023-07-25T23:55:16.298Z,19.77
2023-07-25T23:57:43.423Z,19.61
